createdAt,value
2023-04-24T00:02:51.522Z,4.10
2023-04-24T00:05:24.616Z,4.70
2023-04-24T00:08:03.095Z,4.20
2023-04-24T00:10:40.833Z,4.90
2023-04-24T00:13:33.887Z,4.80
2023-04-24T00:17:03.750Z,4.70
2023-04-24T00:19:43.463Z,3.50
2023-04-24T00:22:48.404Z,4.80
2023-04-24T00:25:54.492Z,4.50
2023-04-24T00:28:58.244Z,4.00
2023-04-24T00:31:42.629Z,3.20
2023-04-24T00:34:51.322Z,3.50
2023-04-24T00:37:56.734Z,4.20
2023-04-24T00:40:34.376Z,3.70
2023-04-24T00:43:10.397Z,3.90
2023-04-24T00:45:45.904Z,4.10
2023-04-24T00:49:24.223Z,3.70
2023-04-24T00:51:57.358Z,3.40
2023-04-24T00:55:18.380Z,3.20
2023-04-24T00:58:16.798Z,3.60
2023-04-24T01:00:54.196Z,4.20
2023-04-24T01:03:46.663Z,4.20
2023-04-24T01:06:29.614Z,3.00
2023-04-24T01:09:09.167Z,4.50
2023-04-24T01:11:48.326Z,3.60
2023-04-24T01:14:37.296Z,4.40
2023-04-24T01:17:40.601Z,4.40
2023-04-24T01:20:17.260Z,4.60
2023-04-24T01:23:12.813Z,5.40
2023-04-24T01:25:49.917Z,4.60
2023-04-24T01:28:37.167Z,4.40
2023-04-24T01:31:30.566Z,4.80
2023-04-24T01:34:04.344Z,5.00
2023-04-24T01:36:49.699Z,4.60
2023-04-24T01:39:22.552Z,4.80
2023-04-24T01:42:21.494Z,5.30
2023-04-24T01:45:23.992Z,4.80
2023-04-24T01:48:44.524Z,5.60
2023-04-24T01:51:22.390Z,5.20
2023-04-24T01:54:18.843Z,5.60
2023-04-24T01:57:55.222Z,5.60
2023-04-24T02:00:55.912Z,5.50
2023-04-24T02:03:33.576Z,5.50
2023-04-24T02:06:05.960Z,5.00
2023-04-24T02:08:44.297Z,6.00
2023-04-24T02:11:36.487Z,6.30
2023-04-24T02:14:13.988Z,6.00
2023-04-24T02:17:09.075Z,6.90
2023-04-24T02:19:45.468Z,6.80
2023-04-24T02:22:26.473Z,7.30
2023-04-24T02:24:55.393Z,6.50
2023-04-24T02:27:50.306Z,6.60
2023-04-24T02:30:34.208Z,6.60
2023-04-24T02:33:23.930Z,7.00
2023-04-24T02:36:15.459Z,7.40
2023-04-24T02:39:12.363Z,9.00
2023-04-24T02:41:49.739Z,12.10
2023-04-24T02:44:48.730Z,11.10
2023-04-24T02:47:25.464Z,11.10
2023-04-24T02:49:56.663Z,9.40
2023-04-24T02:52:40.679Z,8.90
2023-04-24T02:55:12.418Z,9.00
2023-04-24T02:58:14.004Z,7.90
2023-04-24T03:01:11.598Z,7.80
2023-04-24T03:04:03.295Z,7.80
2023-04-24T03:06:49.024Z,8.10
2023-04-24T03:09:47.722Z,7.20
2023-04-24T03:12:29.872Z,6.10
2023-04-24T03:15:32.503Z,5.50
2023-04-24T03:18:03.258Z,5.20
2023-04-24T03:21:24.955Z,6.30
2023-04-24T03:23:57.730Z,5.90
2023-04-24T03:26:32.071Z,6.30
2023-04-24T03:29:55.835Z,5.90
2023-04-24T03:33:00.668Z,6.40
2023-04-24T03:36:06.150Z,6.20
2023-04-24T03:38:54.745Z,6.20
2023-04-24T03:42:02.712Z,5.70
2023-04-24T03:45:40.464Z,5.40
2023-04-24T03:48:20.432Z,5.60
2023-04-24T03:51:01.569Z,6.60
2023-04-24T03:53:43.167Z,7.10
2023-04-24T03:56:16.910Z,6.80
2023-04-24T03:59:00.506Z,6.80
2023-04-24T04:02:26.374Z,6.10
2023-04-24T04:05:08.262Z,6.50
2023-04-24T04:08:04.999Z,5.30
2023-04-24T04:11:49.277Z,5.90
2023-04-24T04:15:01.608Z,4.40
2023-04-24T04:18:31.079Z,4.00
2023-04-24T04:24:38.759Z,5.50
2023-04-24T04:27:26.518Z,6.50
2023-04-24T04:30:55.894Z,7.20
2023-04-24T04:34:55.302Z,10.00
2023-04-24T04:37:39.502Z,11.30
2023-04-24T04:40:57.502Z,9.20
2023-04-24T04:43:30.911Z,10.00
2023-04-24T04:47:26.156Z,10.40
2023-04-24T04:50:17.351Z,10.00
2023-04-24T04:53:18.839Z,10.40
2023-04-24T05:04:21.881Z,9.20
2023-04-24T05:07:16.182Z,7.70
2023-04-24T05:10:11.665Z,8.40
2023-04-24T05:13:36.216Z,7.80
2023-04-24T05:20:34.135Z,10.10
2023-04-24T05:23:37.550Z,8.50
2023-04-24T05:27:02.467Z,9.20
2023-04-24T05:38:28.477Z,8.70
2023-04-24T05:45:09.855Z,7.30
2023-04-24T09:46:00.135Z,3.40
2023-04-24T09:48:48.388Z,8.50
2023-04-24T09:51:56.034Z,3.50
2023-04-24T09:58:51.227Z,2.80
2023-04-24T10:02:47.241Z,3.20
2023-04-24T10:05:51.460Z,3.40
2023-04-24T10:13:04.222Z,3.30
2023-04-24T10:16:35.895Z,2.40
2023-04-24T10:24:11.264Z,4.60
2023-04-24T10:28:19.582Z,5.20
2023-04-24T10:31:58.266Z,4.70
2023-04-24T10:35:40.462Z,3.70
2023-04-24T10:39:46.874Z,1.80
2023-04-24T10:42:55.754Z,1.90
2023-04-24T10:45:42.395Z,1.70
2023-04-24T10:49:11.121Z,1.50
2023-04-24T10:52:31.187Z,1.60
2023-04-24T11:00:08.538Z,1.50
2023-04-24T11:12:26.173Z,1.30
2023-04-24T11:16:16.971Z,2.20
2023-04-24T11:25:04.124Z,2.10
2023-04-24T11:28:15.486Z,2.00
2023-04-24T11:31:38.734Z,2.00
2023-04-24T11:34:39.187Z,2.20
2023-04-24T11:37:13.790Z,2.40
2023-04-24T11:44:20.350Z,2.80
2023-04-24T11:47:18.039Z,2.60
2023-04-24T11:53:35.508Z,2.30
2023-04-24T11:56:21.273Z,1.70
2023-04-24T11:59:13.446Z,2.50
2023-04-24T12:02:47.798Z,2.30
2023-04-24T12:05:52.966Z,2.80
2023-04-24T12:09:18.596Z,2.60
2023-04-24T12:20:42.477Z,2.50
2023-04-24T12:33:40.081Z,3.40
2023-04-24T12:36:46.895Z,2.40
2023-04-24T12:40:03.688Z,2.50
2023-04-24T12:43:19.059Z,2.40
2023-04-24T12:47:15.906Z,2.50
2023-04-24T12:51:13.630Z,3.20
2023-04-24T12:58:18.070Z,2.70
2023-04-24T13:09:42.426Z,2.60
2023-04-24T13:13:08.119Z,2.40
2023-04-24T13:16:22.759Z,3.00
2023-04-24T13:19:28.701Z,2.50
2023-04-24T13:22:21.634Z,2.90
2023-04-24T13:42:43.120Z,2.40
2023-04-24T13:50:33.008Z,2.40
2023-04-24T13:54:01.441Z,2.80
2023-04-24T13:57:36.560Z,3.60
2023-04-24T14:01:16.766Z,2.40
2023-04-24T14:04:30.603Z,2.50
2023-04-24T14:21:07.086Z,2.10
2023-04-24T14:28:51.146Z,2.80
2023-04-24T14:32:32.354Z,2.80
2023-04-24T14:51:53.428Z,2.70
2023-04-24T14:55:30.074Z,3.20
2023-04-24T14:59:01.219Z,3.10
2023-04-24T15:02:15.553Z,2.70
2023-04-24T15:05:03.320Z,2.80
2023-04-24T15:12:52.668Z,3.10
2023-04-24T15:19:57.811Z,2.50
2023-04-24T15:48:00.616Z,2.10
2023-04-24T16:04:06.915Z,2.00
2023-04-24T16:11:57.687Z,2.20
2023-04-24T16:19:29.554Z,2.00
2023-04-24T16:30:58.563Z,2.30
2023-04-24T16:33:50.145Z,2.30
2023-04-24T16:36:35.170Z,1.90
2023-04-24T16:39:31.009Z,2.20
2023-04-24T16:42:41.608Z,3.00
2023-04-24T16:48:57.538Z,4.50
2023-04-24T16:51:55.012Z,4.00
2023-04-24T16:54:57.799Z,5.90
2023-04-24T16:58:05.709Z,5.00
2023-04-24T17:01:53.445Z,4.80
2023-04-24T17:09:07.490Z,3.00
2023-04-24T17:13:00.632Z,2.30
2023-04-24T17:24:48.230Z,5.30
2023-04-24T17:27:41.036Z,5.00
2023-04-24T17:30:30.882Z,5.50
2023-04-24T17:38:05.616Z,5.70
2023-04-24T17:46:46.496Z,26.80
2023-04-24T17:50:02.886Z,40.40
2023-04-24T17:54:01.851Z,34.60
2023-04-24T18:05:06.456Z,12.80
2023-04-24T18:08:03.529Z,15.00
2023-04-24T18:15:38.983Z,13.60
2023-04-24T18:18:31.552Z,12.90
2023-04-24T18:25:01.183Z,11.60
2023-04-24T18:27:49.138Z,11.20
2023-04-24T18:30:37.266Z,12.40
2023-04-24T18:33:31.577Z,11.40
2023-04-24T18:46:08.642Z,10.90
2023-04-24T18:54:58.132Z,12.60
2023-04-24T19:07:07.389Z,19.00
2023-04-24T19:14:44.406Z,11.60
2023-04-24T19:17:57.132Z,9.90
2023-04-24T19:21:12.754Z,8.00
2023-04-24T19:24:37.841Z,6.70
2023-04-24T19:31:19.535Z,16.00
2023-04-24T19:34:16.754Z,16.00
2023-04-24T19:37:22.429Z,15.70
2023-04-24T19:40:36.102Z,14.10
2023-04-24T19:44:26.052Z,12.90
2023-04-24T19:47:09.887Z,15.30
2023-04-24T19:50:44.520Z,15.60
2023-04-24T20:07:29.163Z,13.60
2023-04-24T20:10:36.369Z,12.40
2023-04-24T20:14:44.246Z,12.10
2023-04-24T20:26:17.127Z,9.00
2023-04-24T20:33:40.010Z,8.00
2023-04-24T20:36:37.855Z,8.10
2023-04-24T20:39:34.685Z,9.40
2023-04-24T20:47:50.808Z,13.70
2023-04-24T20:50:42.154Z,15.10
2023-04-24T20:53:36.711Z,15.90
2023-04-24T21:02:17.436Z,14.60
2023-04-24T21:04:55.915Z,15.20
2023-04-24T21:07:53.432Z,17.10
2023-04-24T21:10:52.666Z,19.10
2023-04-24T21:13:33.557Z,19.10
2023-04-24T21:16:03.914Z,13.70
2023-04-24T21:23:05.180Z,18.00
2023-04-24T21:26:24.669Z,13.80
2023-04-24T21:28:59.796Z,12.90
2023-04-24T21:31:54.526Z,10.90
2023-04-24T21:34:55.437Z,17.40
2023-04-24T21:41:18.368Z,14.90
2023-04-24T21:44:00.540Z,13.50
2023-04-24T21:46:50.101Z,10.90
2023-04-24T21:49:52.158Z,10.10
2023-04-24T21:52:49.192Z,10.90
2023-04-24T21:55:56.303Z,11.00
2023-04-24T22:03:45.111Z,11.60
2023-04-24T22:06:41.454Z,11.60
2023-04-24T22:09:21.043Z,11.80
2023-04-24T22:16:53.824Z,10.80
2023-04-24T22:20:02.393Z,9.20
2023-04-24T22:22:41.858Z,11.20
2023-04-24T22:25:18.765Z,10.10
2023-04-24T22:28:16.780Z,10.10
2023-04-24T22:31:17.847Z,7.50
2023-04-24T22:34:19.628Z,7.60
2023-04-24T22:36:59.151Z,7.30
2023-04-24T22:39:41.360Z,9.20
2023-04-24T22:42:36.534Z,7.80
2023-04-24T22:45:15.618Z,7.90
2023-04-24T22:47:48.980Z,6.10
2023-04-24T22:51:03.744Z,6.10
2023-04-24T22:53:43.464Z,5.50
2023-04-24T22:56:41.244Z,5.60
2023-04-24T22:59:48.165Z,5.50
2023-04-24T23:06:01.117Z,6.60
2023-04-24T23:08:36.927Z,6.80
2023-04-24T23:11:39.370Z,6.10
2023-04-24T23:14:48.406Z,6.20
2023-04-24T23:17:31.213Z,5.80
2023-04-24T23:20:06.981Z,6.00
2023-04-24T23:25:27.827Z,6.60
2023-04-24T23:27:58.587Z,7.50
2023-04-24T23:30:38.301Z,6.00
2023-04-24T23:34:02.386Z,6.30
2023-04-24T23:36:43.134Z,5.60
2023-04-24T23:39:13.829Z,5.70
2023-04-24T23:42:03.996Z,6.10
2023-04-24T23:44:41.009Z,5.70
2023-04-24T23:47:51.491Z,5.40
2023-04-24T23:50:54.494Z,4.80
2023-04-24T23:53:51.134Z,7.30
2023-04-24T23:56:43.061Z,7.80
2023-04-24T23:59:32.866Z,8.00
